Time;durP1;ratioP1;P1;durP2;ratioP2;P2;SDS_P1;SDS_P2;PMS_P1;PMS_P2;Temp;Humidity;BMP_temperature;BMP_pressure;BME280_temperature;BME280_humidity;BME280_pressure;Samples;Min_cycle;Max_cycle;Signal;HPM_P1;HPM_P2
2022/06/03 00:00:03;;;;;;;0.20;0.20;;;;;;;;;;5101751;28;20242;-70
2022/06/03 00:02:44;;;;;;;0.00;0.00;;;;;;;;;;5123523;28;20304;-68
2022/06/03 00:05:31;;;;;;;0.10;0.10;;;;;;;;;;5092329;28;20227;-67
2022/06/03 00:08:09;;;;;;;0.07;0.07;;;;;;;;;;5126905;28;20271;-69
2022/06/03 00:10:46;;;;;;;0.10;0.10;;;;;;;;;;5099594;28;20237;-69
2022/06/03 00:13:17;;;;;;;0.10;0.10;;;;;;;;;;5122258;28;20222;-68
2022/06/03 00:16:01;;;;;;;0.10;0.10;;;;;;;;;;5101947;28;20265;-69
2022/06/03 00:18:40;;;;;;;0.10;0.10;;;;;;;;;;5118820;28;20249;-70
2022/06/03 00:21:08;;;;;;;0.10;0.10;;;;;;;;;;5107683;28;20242;-69
2022/06/03 00:23:52;;;;;;;0.10;0.10;;;;;;;;;;5116676;28;20327;-69
2022/06/03 00:26:25;;;;;;;0.10;0.10;;;;;;;;;;5110658;28;20436;-69
2022/06/03 00:28:59;;;;;;;0.10;0.10;;;;;;;;;;5111731;28;20383;-70
2022/06/03 00:31:33;;;;;;;0.10;0.10;;;;;;;;;;5112679;28;20557;-70
2022/06/03 00:34:07;;;;;;;0.10;0.10;;;;;;;;;;5110016;28;20206;-68
2022/06/03 00:36:40;;;;;;;0.10;0.10;;;;;;;;;;5118483;27;20237;-70
2022/06/03 00:39:27;;;;;;;0.33;0.33;;;;;;;;;;5111405;27;20191;-69
2022/06/03 00:42:04;;;;;;;0.10;0.10;;;;;;;;;;5124144;27;20264;-69
2022/06/03 00:44:39;;;;;;;0.00;0.00;;;;;;;;;;5104940;28;20571;-70
2022/06/03 00:47:16;;;;;;;0.10;0.10;;;;;;;;;;5126961;27;20373;-68
2022/06/03 00:49:49;;;;;;;0.00;0.00;;;;;;;;;;5104730;28;20218;-68
2022/06/03 00:52:30;;;;;;;0.10;0.10;;;;;;;;;;5126856;27;20242;-70
2022/06/03 00:55:08;;;;;;;0.00;0.00;;;;;;;;;;5104649;28;20267;-69
2022/06/03 00:57:52;;;;;;;0.00;0.00;;;;;;;;;;5092789;28;20408;-71
2022/06/03 01:00:20;;;;;;;0.00;0.00;;;;;;;;;;5097531;27;20210;-69
2022/06/03 01:03:02;;;;;;;0.10;0.10;;;;;;;;;;5132711;27;20245;-70
2022/06/03 01:05:34;;;;;;;0.10;0.10;;;;;;;;;;5087356;27;20272;-69
2022/06/03 01:08:06;;;;;;;0.00;0.00;;;;;;;;;;5129311;27;20196;-70
2022/06/03 01:10:40;;;;;;;0.00;0.00;;;;;;;;;;5101594;27;20237;-69
2022/06/03 01:13:14;;;;;;;0.10;0.10;;;;;;;;;;5126976;27;20225;-70
2022/06/03 01:15:47;;;;;;;0.03;0.03;;;;;;;;;;5103943;27;20246;-69
2022/06/03 01:18:18;;;;;;;0.10;0.10;;;;;;;;;;5125570;27;20380;-69
2022/06/03 01:20:55;;;;;;;0.10;0.10;;;;;;;;;;5104761;27;20346;-69
2022/06/03 01:23:43;;;;;;;0.10;0.10;;;;;;;;;;5123035;27;20207;-69
2022/06/03 01:26:15;;;;;;;0.10;0.10;;;;;;;;;;5110640;27;20238;-70
2022/06/03 01:28:53;;;;;;;0.10;0.10;;;;;;;;;;5117157;27;20266;-69
2022/06/03 01:31:37;;;;;;;0.10;0.10;;;;;;;;;;5113621;27;20257;-70
2022/06/03 01:34:10;;;;;;;0.10;0.10;;;;;;;;;;5110994;27;20207;-71
2022/06/03 01:36:44;;;;;;;0.00;0.00;;;;;;;;;;5118220;27;20234;-70
2022/06/03 01:39:20;;;;;;;0.00;0.00;;;;;;;;;;5108835;27;20192;-70
2022/06/03 01:41:57;;;;;;;0.03;0.03;;;;;;;;;;5120901;27;20237;-70
2022/06/03 01:44:43;;;;;;;0.10;0.10;;;;;;;;;;5105363;27;20249;-70
2022/06/03 01:47:27;;;;;;;0.10;0.10;;;;;;;;;;5124808;27;20237;-69
2022/06/03 01:50:06;;;;;;;0.00;0.00;;;;;;;;;;5072520;28;20499;-69
2022/06/03 01:52:54;;;;;;;0.10;0.10;;;;;;;;;;5091733;28;20209;-71
2022/06/03 01:55:35;;;;;;;0.10;0.10;;;;;;;;;;5097340;27;20223;-69
2022/06/03 01:58:12;;;;;;;0.00;0.00;;;;;;;;;;5110626;27;20203;-71
2022/06/03 02:00:41;;;;;;;0.00;0.00;;;;;;;;;;5102041;27;20270;-69
2022/06/03 02:03:28;;;;;;;0.10;0.10;;;;;;;;;;5113612;28;20195;-70
2022/06/03 02:06:06;;;;;;;0.00;0.00;;;;;;;;;;5105978;27;20303;-69
2022/06/03 02:08:42;;;;;;;0.00;0.00;;;;;;;;;;5119223;27;20199;-69
2022/06/03 02:11:27;;;;;;;0.10;0.10;;;;;;;;;;5109855;27;20251;-69
2022/06/03 02:14:06;;;;;;;0.10;0.10;;;;;;;;;;5113478;27;20501;-70
2022/06/03 02:16:47;;;;;;;0.10;0.10;;;;;;;;;;5115948;27;20308;-68
2022/06/03 02:19:28;;;;;;;0.10;0.10;;;;;;;;;;5104182;27;20205;-68
2022/06/03 02:22:04;;;;;;;0.10;0.10;;;;;;;;;;5122224;27;20485;-70
2022/06/03 02:24:51;;;;;;;0.10;0.10;;;;;;;;;;5103350;28;20207;-70
2022/06/03 02:27:26;;;;;;;0.10;0.10;;;;;;;;;;5092989;27;20240;-70
2022/06/03 02:30:27;;;;;;;0.10;0.10;;;;;;;;;;5102822;28;20411;-69
2022/06/03 02:33:14;;;;;;;0.10;0.10;;;;;;;;;;5100526;28;20202;-71
2022/06/03 02:35:42;;;;;;;0.10;0.10;;;;;;;;;;5101907;27;20568;-70
2022/06/03 02:38:26;;;;;;;0.10;0.10;;;;;;;;;;5124780;27;20191;-69
2022/06/03 02:41:13;;;;;;;0.10;0.10;;;;;;;;;;5104872;27;20593;-69
2022/06/03 02:44:01;;;;;;;0.10;0.10;;;;;;;;;;5083412;28;20206;-70
2022/06/03 02:46:45;;;;;;;0.10;0.10;;;;;;;;;;5114041;27;20266;-68
2022/06/03 02:49:21;;;;;;;0.10;0.10;;;;;;;;;;5107554;27;20202;-68
2022/06/03 02:52:02;;;;;;;0.10;0.10;;;;;;;;;;5119649;27;20253;-69
2022/06/03 02:54:42;;;;;;;0.10;0.10;;;;;;;;;;5069199;28;20275;-69
2022/06/03 02:57:26;;;;;;;0.00;0.00;;;;;;;;;;5124417;27;20237;-70
2022/06/03 03:00:04;;;;;;;0.10;0.10;;;;;;;;;;5101576;28;20211;-68
2022/06/03 03:02:41;;;;;;;0.10;0.10;;;;;;;;;;5090395;28;20211;-69
2022/06/03 03:05:19;;;;;;;0.10;0.10;;;;;;;;;;5092020;27;20241;-70
2022/06/03 03:08:04;;;;;;;0.00;0.00;;;;;;;;;;5131031;27;20262;-69
2022/06/03 03:10:43;;;;;;;0.00;0.00;;;;;;;;;;5088148;27;20623;-69
2022/06/03 03:13:19;;;;;;;0.10;0.10;;;;;;;;;;5124115;27;20207;-70
2022/06/03 03:16:13;;;;;;;0.10;0.10;;;;;;;;;;5102642;27;20235;-69
2022/06/03 03:18:51;;;;;;;0.10;0.10;;;;;;;;;;5115811;27;20196;-70
2022/06/03 03:21:42;;;;;;;0.10;0.10;;;;;;;;;;5110930;27;20240;-70
2022/06/03 03:24:23;;;;;;;0.10;0.10;;;;;;;;;;5089378;28;20276;-71
2022/06/03 03:26:57;;;;;;;0.10;0.10;;;;;;;;;;5119395;27;20575;-70
2022/06/03 03:29:57;;;;;;;0.10;0.10;;;;;;;;;;5103917;27;20218;-70
2022/06/03 03:32:33;;;;;;;0.00;0.00;;;;;;;;;;5029395;28;20306;-69
2022/06/03 03:35:13;;;;;;;0.10;0.10;;;;;;;;;;5039236;28;20291;-69
2022/06/03 03:38:03;;;;;;;0.10;0.10;;;;;;;;;;5075743;28;20545;-69
2022/06/03 03:40:42;;;;;;;0.00;0.00;;;;;;;;;;5097683;28;20298;-70
2022/06/03 03:43:28;;;;;;;0.10;0.10;;;;;;;;;;5123941;28;20224;-68
2022/06/03 03:46:15;;;;;;;0.07;0.07;;;;;;;;;;5104375;28;20244;-69
2022/06/03 03:49:07;;;;;;;0.10;0.10;;;;;;;;;;5115320;28;20199;-69
2022/06/03 03:51:34;;;;;;;0.10;0.10;;;;;;;;;;5114857;28;20264;-70
2022/06/03 03:54:22;;;;;;;0.10;0.10;;;;;;;;;;5109776;28;20205;-70
2022/06/03 03:57:03;;;;;;;0.10;0.10;;;;;;;;;;5118011;28;20246;-70
2022/06/03 03:59:44;;;;;;;0.10;0.10;;;;;;;;;;5102333;28;20214;-70
2022/06/03 04:02:26;;;;;;;0.10;0.10;;;;;;;;;;5123512;28;20239;-70
2022/06/03 04:05:01;;;;;;;0.10;0.10;;;;;;;;;;5101179;28;20285;-70
2022/06/03 04:07:42;;;;;;;0.10;0.10;;;;;;;;;;5123374;28;20246;-69
2022/06/03 04:10:30;;;;;;;0.10;0.10;;;;;;;;;;5093850;28;20275;-70
2022/06/03 04:13:09;;;;;;;0.10;0.10;;;;;;;;;;5131446;27;20402;-70
2022/06/03 04:15:47;;;;;;;0.13;0.13;;;;;;;;;;5103054;27;20268;-69
2022/06/03 04:18:35;;;;;;;0.10;0.10;;;;;;;;;;5126287;27;20213;-69
2022/06/03 04:21:24;;;;;;;0.10;0.10;;;;;;;;;;5104690;27;20236;-68
2022/06/03 04:24:12;;;;;;;0.10;0.10;;;;;;;;;;5116778;27;20477;-69
2022/06/03 04:26:53;;;;;;;0.10;0.10;;;;;;;;;;5119656;27;20363;-70
2022/06/03 04:29:55;;;;;;;0.10;0.10;;;;;;;;;;5105366;27;20210;-70
2022/06/03 04:32:39;;;;;;;0.10;0.10;;;;;;;;;;5127366;27;20599;-70
2022/06/03 04:35:24;;;;;;;0.10;0.10;;;;;;;;;;5089154;28;20204;-70
2022/06/03 04:38:16;;;;;;;1.03;1.03;;;;;;;;;;5104976;28;20206;-70
2022/06/03 04:41:01;;;;;;;0.10;0.10;;;;;;;;;;5104544;27;20300;-70
2022/06/03 04:43:49;;;;;;;0.13;0.13;;;;;;;;;;5122629;27;20223;-70
2022/06/03 04:46:30;;;;;;;0.10;0.10;;;;;;;;;;5113045;27;20501;-70
2022/06/03 04:49:17;;;;;;;0.10;0.10;;;;;;;;;;5110797;27;20207;-69
2022/06/03 04:52:05;;;;;;;0.00;0.00;;;;;;;;;;5120911;27;20297;-69
2022/06/03 04:54:49;;;;;;;0.10;0.10;;;;;;;;;;5104840;28;20248;-70
2022/06/03 04:57:41;;;;;;;0.10;0.10;;;;;;;;;;5088752;27;20253;-68
2022/06/03 05:00:17;;;;;;;0.10;0.10;;;;;;;;;;5094657;28;20210;-69
2022/06/03 05:02:58;;;;;;;0.10;0.10;;;;;;;;;;5134033;27;20257;-69
2022/06/03 05:05:39;;;;;;;0.10;0.10;;;;;;;;;;5099818;27;20240;-70
2022/06/03 05:08:30;;;;;;;0.10;0.10;;;;;;;;;;5123959;27;20209;-69
2022/06/03 05:11:26;;;;;;;0.10;0.10;;;;;;;;;;5107881;27;20237;-69
2022/06/03 05:14:09;;;;;;;0.10;0.10;;;;;;;;;;5114641;27;20513;-69
2022/06/03 05:16:50;;;;;;;0.00;0.00;;;;;;;;;;5118423;27;20295;-69
2022/06/03 05:19:31;;;;;;;0.00;0.00;;;;;;;;;;5108397;27;20292;-69
2022/06/03 05:22:14;;;;;;;0.03;0.03;;;;;;;;;;5123370;27;20244;-71
2022/06/03 05:25:05;;;;;;;0.10;0.10;;;;;;;;;;5104196;28;20279;-71
2022/06/03 05:27:56;;;;;;;0.10;0.10;;;;;;;;;;5020460;28;20709;-69
2022/06/03 05:30:37;;;;;;;0.10;0.10;;;;;;;;;;5098631;27;20245;-70
2022/06/03 05:33:17;;;;;;;0.03;0.03;;;;;;;;;;5124448;27;20284;-70
2022/06/03 05:36:04;;;;;;;0.10;0.10;;;;;;;;;;5104005;27;20240;-70
2022/06/03 05:38:43;;;;;;;0.10;0.10;;;;;;;;;;5120193;27;20198;-70
2022/06/03 05:44:02;;;;;;;0.03;0.03;;;;;;;;;;5110859;27;20389;-70
2022/06/03 05:46:36;;;;;;;0.07;0.07;;;;;;;;;;5115755;27;20300;-70
2022/06/03 05:49:08;;;;;;;0.10;0.10;;;;;;;;;;5111079;27;20519;-69
2022/06/03 05:51:43;;;;;;;0.10;0.10;;;;;;;;;;5117023;27;20452;-69
2022/06/03 05:54:15;;;;;;;0.10;0.10;;;;;;;;;;5108499;27;20206;-70
2022/06/03 05:56:46;;;;;;;0.10;0.10;;;;;;;;;;5119360;27;20385;-69
2022/06/03 05:59:17;;;;;;;0.10;0.10;;;;;;;;;;5108045;27;20262;-70
2022/06/03 06:01:48;;;;;;;0.10;0.10;;;;;;;;;;5118635;27;20247;-69
2022/06/03 06:04:20;;;;;;;0.10;0.10;;;;;;;;;;5108183;27;20486;-69
2022/06/03 06:06:52;;;;;;;0.10;0.10;;;;;;;;;;5120230;27;20298;-69
2022/06/03 06:09:29;;;;;;;0.10;0.10;;;;;;;;;;5105966;27;20199;-70
2022/06/03 06:12:11;;;;;;;0.10;0.10;;;;;;;;;;5122633;27;20237;-69
2022/06/03 06:14:44;;;;;;;0.10;0.10;;;;;;;;;;5102764;28;20273;-69
2022/06/03 06:17:21;;;;;;;0.07;0.07;;;;;;;;;;5110455;27;20233;-70
2022/06/03 06:19:50;;;;;;;0.10;0.10;;;;;;;;;;5102928;28;20542;-70
2022/06/03 06:22:22;;;;;;;0.00;0.00;;;;;;;;;;5124926;27;20245;-70
2022/06/03 06:24:57;;;;;;;0.10;0.10;;;;;;;;;;5103017;28;20261;-69
2022/06/03 06:27:34;;;;;;;0.10;0.10;;;;;;;;;;5124415;27;20565;-68
2022/06/03 06:30:15;;;;;;;0.00;0.00;;;;;;;;;;5102529;28;20274;-69
2022/06/03 06:33:05;;;;;;;0.10;0.10;;;;;;;;;;5101968;28;20397;-70
2022/06/03 06:36:05;;;;;;;0.03;0.03;;;;;;;;;;5099511;27;20240;-70
2022/06/03 06:38:40;;;;;;;0.10;0.10;;;;;;;;;;5118935;27;20555;-68
2022/06/03 06:41:17;;;;;;;0.03;0.03;;;;;;;;;;5108626;27;20242;-68
2022/06/03 06:43:47;;;;;;;0.10;0.10;;;;;;;;;;5115604;27;20501;-69
2022/06/03 06:46:18;;;;;;;0.10;0.10;;;;;;;;;;5110155;27;20236;-69
2022/06/03 06:48:50;;;;;;;0.10;0.10;;;;;;;;;;5114582;27;20191;-70
2022/06/03 06:51:29;;;;;;;0.10;0.10;;;;;;;;;;5111428;27;20308;-69
2022/06/03 06:53:58;;;;;;;0.10;0.10;;;;;;;;;;5111957;27;20479;-69
2022/06/03 06:56:28;;;;;;;0.10;0.10;;;;;;;;;;5112796;27;20234;-68
2022/06/03 06:58:58;;;;;;;0.00;0.00;;;;;;;;;;5111997;27;20204;-70
2022/06/03 07:01:26;;;;;;;0.00;0.00;;;;;;;;;;5113012;27;20266;-69
2022/06/03 07:03:58;;;;;;;0.07;0.07;;;;;;;;;;5112126;27;20286;-68
2022/06/03 07:06:28;;;;;;;0.00;0.00;;;;;;;;;;5112839;27;20319;-68
2022/06/03 07:08:58;;;;;;;0.10;0.10;;;;;;;;;;5111552;27;20262;-69
2022/06/03 07:11:28;;;;;;;0.10;0.10;;;;;;;;;;5113086;27;20283;-68
2022/06/03 07:13:56;;;;;;;0.00;0.00;;;;;;;;;;5111535;27;20274;-69
2022/06/03 07:22:01;;;;;;;0.00;0.00;;;;;;;;;;5121444;27;20242;-69
2022/06/03 07:24:35;;;;;;;0.00;0.00;;;;;;;;;;5102546;27;20423;-70
2022/06/03 07:27:07;;;;;;;0.00;0.00;;;;;;;;;;5122057;27;20241;-72
2022/06/03 07:29:39;;;;;;;0.00;0.00;;;;;;;;;;5101356;28;20280;-70
2022/06/03 07:32:12;;;;;;;0.10;0.10;;;;;;;;;;5123472;27;20241;-68
2022/06/03 07:34:40;;;;;;;0.00;0.00;;;;;;;;;;5101264;28;20243;-70
2022/06/03 07:37:09;;;;;;;0.10;0.10;;;;;;;;;;5123406;27;20443;-68
2022/06/03 07:39:38;;;;;;;0.00;0.00;;;;;;;;;;5101272;28;20403;-69
2022/06/03 07:42:07;;;;;;;0.00;0.00;;;;;;;;;;5123228;28;20309;-68
2022/06/03 07:44:43;;;;;;;0.05;0.05;;;;;;;;;;5102549;28;20212;-68
2022/06/03 07:47:13;;;;;;;0.00;0.00;;;;;;;;;;5128601;27;20301;-70
2022/06/03 07:49:44;;;;;;;0.00;0.00;;;;;;;;;;5106732;28;20196;-69
2022/06/03 07:52:15;;;;;;;0.00;0.00;;;;;;;;;;5076904;27;20258;-70
2022/06/03 07:55:02;;;;;;;0.00;0.00;;;;;;;;;;5084249;28;20321;-71
2022/06/03 07:57:33;;;;;;;0.00;0.00;;;;;;;;;;5014160;28;20241;-69
2022/06/03 08:00:08;;;;;;;0.10;0.10;;;;;;;;;;5024254;28;20228;-70
2022/06/03 08:02:34;;;;;;;0.05;0.05;;;;;;;;;;4997612;28;20208;-69
2022/06/03 08:05:09;;;;;;;0.00;0.00;;;;;;;;;;5024105;28;20229;-70
2022/06/03 08:19:00;;;;;;;;;;;;;;;;;;;;;
2022/06/03 08:21:28;;;;;;;0.00;0.00;;;;;;;;;;5116873;27;20251;-70
2022/06/03 08:23:56;;;;;;;0.10;0.10;;;;;;;;;;5116823;27;20227;-70
2022/06/03 08:26:26;;;;;;;0.10;0.10;;;;;;;;;;5113652;27;20242;-69
2022/06/03 08:29:11;;;;;;;0.00;0.00;;;;;;;;;;5116876;27;20211;-69
2022/06/03 08:31:45;;;;;;;0.00;0.00;;;;;;;;;;5109717;27;20291;-70
2022/06/03 08:37:02;;;;;;;0.10;0.10;;;;;;;;;;5122706;27;20260;-69
2022/06/03 08:39:30;;;;;;;0.10;0.10;;;;;;;;;;5107044;27;20263;-66
2022/06/03 08:42:05;;;;;;;0.10;0.10;;;;;;;;;;5124358;27;20246;-72
2022/06/03 08:44:42;;;;;;;0.00;0.00;;;;;;;;;;5105076;28;20193;-70
2022/06/03 08:47:13;;;;;;;0.00;0.00;;;;;;;;;;5126602;27;20543;-69
2022/06/03 08:49:54;;;;;;;0.00;0.00;;;;;;;;;;5104415;28;20271;-70
2022/06/03 08:52:23;;;;;;;0.00;0.00;;;;;;;;;;5124175;27;20296;-70
2022/06/03 08:54:52;;;;;;;0.08;0.08;;;;;;;;;;5104343;28;20220;-70
2022/06/03 08:57:21;;;;;;;0.00;0.00;;;;;;;;;;5126214;27;20251;-70
2022/06/03 08:59:50;;;;;;;0.00;0.00;;;;;;;;;;5104517;28;20308;-69
2022/06/03 09:02:22;;;;;;;0.00;0.00;;;;;;;;;;5126325;27;20238;-71
2022/06/03 09:04:50;;;;;;;0.00;0.00;;;;;;;;;;5104393;28;20201;-68
2022/06/03 09:07:24;;;;;;;0.10;0.10;;;;;;;;;;5125708;27;20257;-69
2022/06/03 09:09:53;;;;;;;0.00;0.00;;;;;;;;;;5103955;28;20307;-67
2022/06/03 09:12:20;;;;;;;0.00;0.00;;;;;;;;;;5126100;27;20313;-68
2022/06/03 09:14:48;;;;;;;0.00;0.00;;;;;;;;;;5103759;28;20208;-70
2022/06/03 09:17:29;;;;;;;0.10;0.10;;;;;;;;;;5125778;27;20243;-69
2022/06/03 09:19:58;;;;;;;0.00;0.00;;;;;;;;;;5103701;28;20225;-70
2022/06/03 09:22:25;;;;;;;0.00;0.00;;;;;;;;;;5125887;27;20240;-69
2022/06/03 09:24:54;;;;;;;0.00;0.00;;;;;;;;;;5103733;28;20292;-71
2022/06/03 09:27:21;;;;;;;0.00;0.00;;;;;;;;;;5125622;27;20243;-70
2022/06/03 09:29:51;;;;;;;0.00;0.00;;;;;;;;;;5103877;28;20272;-70
2022/06/03 09:32:20;;;;;;;0.00;0.00;;;;;;;;;;5125799;27;20284;-70
2022/06/03 09:34:49;;;;;;;0.00;0.00;;;;;;;;;;5103515;28;20229;-70
2022/06/03 09:37:17;;;;;;;0.00;0.00;;;;;;;;;;5125592;27;20267;-70
2022/06/03 09:39:44;;;;;;;0.00;0.00;;;;;;;;;;5103333;28;20266;-68
2022/06/03 09:42:13;;;;;;;0.10;0.10;;;;;;;;;;5125743;27;20239;-68
2022/06/03 09:44:40;;;;;;;0.00;0.00;;;;;;;;;;5103574;28;20304;-70
2022/06/03 09:47:09;;;;;;;0.00;0.00;;;;;;;;;;5125298;27;20524;-69
2022/06/03 09:49:36;;;;;;;0.10;0.10;;;;;;;;;;5103069;28;20251;-71
2022/06/03 09:52:08;;;;;;;0.00;0.00;;;;;;;;;;5124602;27;20247;-70
2022/06/03 09:54:36;;;;;;;0.00;0.00;;;;;;;;;;5103387;28;20223;-71
2022/06/03 09:57:07;;;;;;;0.00;0.00;;;;;;;;;;5124165;27;20258;-70
2022/06/03 09:59:35;;;;;;;0.00;0.00;;;;;;;;;;5103005;28;20243;-70
2022/06/03 10:02:01;;;;;;;0.00;0.00;;;;;;;;;;5124140;27;20247;-70
2022/06/03 10:04:28;;;;;;;0.00;0.00;;;;;;;;;;5103828;27;20252;-71
2022/06/03 10:06:55;;;;;;;0.03;0.03;;;;;;;;;;5121364;27;20240;-70
2022/06/03 10:17:38;;;;;;;0.00;0.00;;;;;;;;;;5098566;28;20228;-70
2022/06/03 10:20:06;;;;;;;0.00;0.00;;;;;;;;;;5100208;28;20452;-70
2022/06/03 10:22:33;;;;;;;0.00;0.00;;;;;;;;;;5134683;27;20215;-69
2022/06/03 10:25:01;;;;;;;0.00;0.00;;;;;;;;;;5102737;28;20210;-71
2022/06/03 10:27:27;;;;;;;0.00;0.00;;;;;;;;;;5124725;27;20242;-70
2022/06/03 10:29:58;;;;;;;0.00;0.00;;;;;;;;;;5102916;28;20203;-70
2022/06/03 10:32:25;;;;;;;0.00;0.00;;;;;;;;;;5124706;27;20238;-70
2022/06/03 10:34:55;;;;;;;0.00;0.00;;;;;;;;;;5102633;28;20290;-71
2022/06/03 10:37:23;;;;;;;0.00;0.00;;;;;;;;;;5124675;27;20323;-70
2022/06/03 10:39:53;;;;;;;0.00;0.00;;;;;;;;;;5102472;28;20203;-69
2022/06/03 10:42:23;;;;;;;0.00;0.00;;;;;;;;;;5124736;27;20304;-70
2022/06/03 10:44:51;;;;;;;0.00;0.00;;;;;;;;;;5102375;28;20440;-70
2022/06/03 10:47:18;;;;;;;0.00;0.00;;;;;;;;;;5124136;27;20335;-70
2022/06/03 10:49:52;;;;;;;0.00;0.00;;;;;;;;;;5102266;28;20202;-69
2022/06/03 11:03:30;;;;;;;0.00;0.00;;;;;;;;;;5119218;27;20186;-69
2022/06/03 11:05:56;;;;;;;0.00;0.00;;;;;;;;;;5105438;27;20395;-69
2022/06/03 11:08:23;;;;;;;0.00;0.00;;;;;;;;;;5120411;27;20263;-71
2022/06/03 11:10:51;;;;;;;0.00;0.00;;;;;;;;;;5102749;27;20256;-69
2022/06/03 11:13:27;;;;;;;0.00;0.00;;;;;;;;;;5121978;27;20269;-71
2022/06/03 11:15:54;;;;;;;0.00;0.00;;;;;;;;;;5104680;27;20256;-71
2022/06/03 11:18:22;;;;;;;0.00;0.00;;;;;;;;;;5121261;27;20218;-70
2022/06/03 11:20:50;;;;;;;0.00;0.00;;;;;;;;;;5102440;27;20320;-71
2022/06/03 11:23:17;;;;;;;0.00;0.00;;;;;;;;;;5121964;27;20525;-70
2022/06/03 11:25:46;;;;;;;0.00;0.00;;;;;;;;;;5101720;27;20237;-70
2022/06/03 11:28:14;;;;;;;0.00;0.00;;;;;;;;;;5123009;27;20240;-72
2022/06/03 11:30:46;;;;;;;0.00;0.00;;;;;;;;;;5101145;27;20478;-72
2022/06/03 11:33:16;;;;;;;0.00;0.00;;;;;;;;;;5123485;27;20240;-71
2022/06/03 11:35:45;;;;;;;0.00;0.00;;;;;;;;;;5101990;28;20248;-71
2022/06/03 11:38:15;;;;;;;0.00;0.00;;;;;;;;;;5123137;27;20226;-71
2022/06/03 11:40:45;;;;;;;0.00;0.00;;;;;;;;;;5101126;28;20248;-72
2022/06/03 11:43:14;;;;;;;0.00;0.00;;;;;;;;;;5123615;28;20203;-72
2022/06/03 11:45:45;;;;;;;0.00;0.00;;;;;;;;;;5101012;28;20236;-71
2022/06/03 11:48:16;;;;;;;0.00;0.00;;;;;;;;;;5123345;28;20230;-71
2022/06/03 11:50:43;;;;;;;0.00;0.00;;;;;;;;;;5101899;28;20248;-71
2022/06/03 11:53:09;;;;;;;0.00;0.00;;;;;;;;;;5124194;28;20482;-71
2022/06/03 11:55:38;;;;;;;0.00;0.00;;;;;;;;;;5100016;28;20296;-72
2022/06/03 11:58:07;;;;;;;0.00;0.00;;;;;;;;;;5125404;28;20199;-70
2022/06/03 12:00:37;;;;;;;0.00;0.00;;;;;;;;;;5098169;28;20485;-71
2022/06/03 12:03:08;;;;;;;0.00;0.00;;;;;;;;;;5126547;28;20214;-72
2022/06/03 12:05:38;;;;;;;0.00;0.00;;;;;;;;;;5099253;28;20425;-71
2022/06/03 12:08:08;;;;;;;0.00;0.00;;;;;;;;;;5125048;28;20297;-71
2022/06/03 12:10:41;;;;;;;0.00;0.00;;;;;;;;;;5096673;28;20294;-71
2022/06/03 12:13:15;;;;;;;0.00;0.00;;;;;;;;;;5126868;28;20262;-71
2022/06/03 12:16:05;;;;;;;0.00;0.00;;;;;;;;;;5098363;28;20399;-70
2022/06/03 12:18:49;;;;;;;0.00;0.00;;;;;;;;;;5099992;28;20387;-70
2022/06/03 12:21:38;;;;;;;0.00;0.00;;;;;;;;;;5109567;28;20249;-72
2022/06/03 12:24:19;;;;;;;0.00;0.00;;;;;;;;;;5109226;28;20253;-72
2022/06/03 12:26:46;;;;;;;0.00;0.00;;;;;;;;;;5118237;28;20247;-71
2022/06/03 12:29:17;;;;;;;0.00;0.00;;;;;;;;;;5105817;28;20223;-72
2022/06/03 12:31:45;;;;;;;0.00;0.00;;;;;;;;;;5119865;27;20259;-71
2022/06/03 12:34:22;;;;;;;0.00;0.00;;;;;;;;;;5111023;27;20210;-71
2022/06/03 12:36:55;;;;;;;0.00;0.00;;;;;;;;;;5122763;27;20232;-71
2022/06/03 12:39:23;;;;;;;0.00;0.00;;;;;;;;;;5107680;27;20213;-72
2022/06/03 12:41:58;;;;;;;0.00;0.00;;;;;;;;;;5122818;27;20564;-72
2022/06/03 12:44:39;;;;;;;0.00;0.00;;;;;;;;;;5107135;27;20206;-71
2022/06/03 12:47:39;;;;;;;0.00;0.00;;;;;;;;;;5127172;27;20240;-72
2022/06/03 12:50:21;;;;;;;0.00;0.00;;;;;;;;;;5095733;28;20225;-72
2022/06/03 12:52:49;;;;;;;0.00;0.00;;;;;;;;;;5104559;28;20210;-73
2022/06/03 12:55:19;;;;;;;0.00;0.00;;;;;;;;;;5096892;27;20274;-72
2022/06/03 12:57:48;;;;;;;0.00;0.00;;;;;;;;;;5133740;27;20298;-71
2022/06/03 13:00:16;;;;;;;0.00;0.00;;;;;;;;;;5096081;27;20457;-71
2022/06/03 13:02:49;;;;;;;0.00;0.00;;;;;;;;;;5134984;27;20424;-72
2022/06/03 13:05:26;;;;;;;0.00;0.00;;;;;;;;;;5096364;27;20222;-71
2022/06/03 13:07:58;;;;;;;0.00;0.00;;;;;;;;;;5131696;27;20501;-71
2022/06/03 13:10:33;;;;;;;0.00;0.00;;;;;;;;;;5096713;27;20211;-72
2022/06/03 13:13:21;;;;;;;0.00;0.00;;;;;;;;;;5132025;27;20262;-71
2022/06/03 13:15:48;;;;;;;0.00;0.00;;;;;;;;;;5103545;27;20233;-72
2022/06/03 13:18:30;;;;;;;0.00;0.00;;;;;;;;;;5126685;27;20238;-71
2022/06/03 13:21:11;;;;;;;0.00;0.00;;;;;;;;;;5107523;27;20285;-71
2022/06/03 13:23:53;;;;;;;0.00;0.00;;;;;;;;;;5118534;27;20184;-72
2022/06/03 13:26:38;;;;;;;0.00;0.00;;;;;;;;;;5113707;27;20236;-72
2022/06/03 13:29:07;;;;;;;0.00;0.00;;;;;;;;;;5110695;27;20234;-70
2022/06/03 13:31:48;;;;;;;0.00;0.00;;;;;;;;;;5116087;27;20333;-71
2022/06/03 13:34:17;;;;;;;0.00;0.00;;;;;;;;;;5111091;27;20248;-71
2022/06/03 13:36:57;;;;;;;0.00;0.00;;;;;;;;;;5120210;27;20532;-72
2022/06/03 13:39:43;;;;;;;0.00;0.00;;;;;;;;;;5105753;27;20418;-71
2022/06/03 13:45:12;;;;;;;0.00;0.00;;;;;;;;;;5103939;28;20330;-66
2022/06/03 13:47:49;;;;;;;0.00;0.00;;;;;;;;;;5098122;28;20199;-66
2022/06/03 13:50:20;;;;;;;0.00;0.00;;;;;;;;;;5096122;27;20182;-65
2022/06/03 13:52:49;;;;;;;0.00;0.00;;;;;;;;;;5132327;27;20505;-66
2022/06/03 13:55:17;;;;;;;0.00;0.00;;;;;;;;;;5095869;27;20202;-65
2022/06/03 13:57:51;;;;;;;0.00;0.00;;;;;;;;;;5132842;27;20209;-73
2022/06/03 14:00:19;;;;;;;0.00;0.00;;;;;;;;;;5096310;27;20207;-74
2022/06/03 14:02:47;;;;;;;0.00;0.00;;;;;;;;;;5132205;27;20207;-74
2022/06/03 14:05:14;;;;;;;0.00;0.00;;;;;;;;;;5094981;27;20207;-74
2022/06/03 14:07:42;;;;;;;0.00;0.00;;;;;;;;;;5133106;27;20256;-72
2022/06/03 14:10:13;;;;;;;0.00;0.00;;;;;;;;;;5093687;27;20581;-73
2022/06/03 14:12:43;;;;;;;0.00;0.00;;;;;;;;;;5133354;27;20213;-72
2022/06/03 14:15:16;;;;;;;0.00;0.00;;;;;;;;;;5094109;27;20485;-73
2022/06/03 14:17:54;;;;;;;0.00;0.00;;;;;;;;;;5133518;27;20218;-72
2022/06/03 14:20:23;;;;;;;0.00;0.00;;;;;;;;;;5096903;27;20265;-74
2022/06/03 14:22:53;;;;;;;0.00;0.00;;;;;;;;;;5131272;27;20234;-73
2022/06/03 14:25:23;;;;;;;0.00;0.00;;;;;;;;;;5096607;27;20228;-73
2022/06/03 14:27:51;;;;;;;0.00;0.00;;;;;;;;;;5131009;27;20451;-74
2022/06/03 14:30:22;;;;;;;0.00;0.00;;;;;;;;;;5095622;27;20226;-77
2022/06/03 14:32:49;;;;;;;0.00;0.00;;;;;;;;;;5131525;27;20214;-78
2022/06/03 14:35:19;;;;;;;0.00;0.00;;;;;;;;;;5095477;27;20229;-75
2022/06/03 14:37:49;;;;;;;0.00;0.00;;;;;;;;;;5132079;27;20205;-72
2022/06/03 14:40:17;;;;;;;0.00;0.00;;;;;;;;;;5095719;27;20187;-71
2022/06/03 14:42:44;;;;;;;0.00;0.00;;;;;;;;;;5132354;27;20213;-71
2022/06/03 14:45:13;;;;;;;0.00;0.00;;;;;;;;;;5094042;27;20244;-71
2022/06/03 14:47:46;;;;;;;0.00;0.00;;;;;;;;;;5133535;27;20248;-69
2022/06/03 14:50:16;;;;;;;0.00;0.00;;;;;;;;;;5094246;27;20234;-73
2022/06/03 14:52:46;;;;;;;0.00;0.00;;;;;;;;;;5132461;27;20253;-69
2022/06/03 14:55:14;;;;;;;0.00;0.00;;;;;;;;;;5093404;27;20388;-70
2022/06/03 14:57:54;;;;;;;0.00;0.00;;;;;;;;;;5134509;27;20268;-69
2022/06/03 15:00:31;;;;;;;0.00;0.00;;;;;;;;;;5097099;27;20195;-68
2022/06/03 15:03:08;;;;;;;0.00;0.00;;;;;;;;;;5129551;27;20224;-68
2022/06/03 15:05:43;;;;;;;0.00;0.00;;;;;;;;;;5090529;28;20202;-68
2022/06/03 15:08:13;;;;;;;0.00;0.00;;;;;;;;;;5103344;28;20210;-69
2022/06/03 15:10:43;;;;;;;0.00;0.00;;;;;;;;;;5100070;27;20286;-71
2022/06/03 15:13:24;;;;;;;0.00;0.00;;;;;;;;;;5127468;27;20251;-70
2022/06/03 15:15:51;;;;;;;0.05;0.05;;;;;;;;;;5099762;27;20252;-69
2022/06/03 15:18:21;;;;;;;0.00;0.00;;;;;;;;;;5126548;27;20206;-69
2022/06/03 15:20:56;;;;;;;0.00;0.00;;;;;;;;;;5103066;27;20283;-69
2022/06/03 15:23:24;;;;;;;0.10;0.10;;;;;;;;;;5121940;27;20451;-68
2022/06/03 15:25:54;;;;;;;0.00;0.00;;;;;;;;;;5104942;27;20438;-69
2022/06/03 15:28:21;;;;;;;0.00;0.00;;;;;;;;;;5120863;27;20265;-70
2022/06/03 15:30:50;;;;;;;0.00;0.00;;;;;;;;;;5102977;28;20619;-69
2022/06/03 15:33:20;;;;;;;0.00;0.00;;;;;;;;;;5122291;27;20195;-69
2022/06/03 15:35:47;;;;;;;0.10;0.10;;;;;;;;;;5102189;28;20377;-69
2022/06/03 15:38:15;;;;;;;0.00;0.00;;;;;;;;;;5123848;27;20269;-69
2022/06/03 15:40:43;;;;;;;0.00;0.00;;;;;;;;;;5101129;28;20253;-72
2022/06/03 15:43:12;;;;;;;0.10;0.10;;;;;;;;;;5123781;28;20540;-75
2022/06/03 15:45:44;;;;;;;0.00;0.00;;;;;;;;;;5100305;28;20308;-76
2022/06/03 15:48:13;;;;;;;0.00;0.00;;;;;;;;;;5123364;28;20274;-73
2022/06/03 15:50:44;;;;;;;0.00;0.00;;;;;;;;;;5100536;28;20304;-64
2022/06/03 15:53:21;;;;;;;0.00;0.00;;;;;;;;;;5123956;28;20206;-65
2022/06/03 15:55:53;;;;;;;0.10;0.10;;;;;;;;;;5102685;28;20494;-65
2022/06/03 15:58:25;;;;;;;0.10;0.10;;;;;;;;;;5120740;28;20202;-64
2022/06/03 16:00:54;;;;;;;0.00;0.00;;;;;;;;;;5103673;28;20296;-64
2022/06/03 16:03:22;;;;;;;0.00;0.00;;;;;;;;;;5120270;28;20228;-70
2022/06/03 16:05:52;;;;;;;0.00;0.00;;;;;;;;;;5104338;27;20240;-75
2022/06/03 16:08:33;;;;;;;0.00;0.00;;;;;;;;;;5125853;27;20389;-77
2022/06/03 16:11:04;;;;;;;0.00;0.00;;;;;;;;;;5108030;27;20243;-72
2022/06/03 16:13:42;;;;;;;0.00;0.00;;;;;;;;;;5122773;27;20207;-74